Bookmark and Share
Track history (hours):
 

Krisjanis Valdemars

Last reported at 2014-Apr-20 18:34 UTC. Time now 2014-Apr-21 07:28 UTC.
Position N 51°21' E 004°18'.

Length 183 m; draft 7.4 m.

Type: Tanker. MMSI: 538002757.

NotesDate/timePositionNaut miles runAvg speedWind from/ knotsBaromVisibWave heightAir tempDewpointWater temp
2014-Apr-20 18:34N 51°21' E 004°18'0 0.3
2014-Apr-20 17:34N 51°21' E 004°17'0 0.1
2014-Apr-20 16:34N 51°21' E 004°17'5 4.9
2014-Apr-20 15:33N 51°24' E 004°11'9 8.7
2014-Apr-20 14:33N 51°23' E 003°57'1110.8
2014-Apr-20 13:34N 51°26' E 003°40'8 8.2
2014-Apr-20 12:33N 51°25' E 003°27'1313.4
2014-Apr-20 11:33N 51°24' E 003°06'1211.8
2014-Apr-20 10:33N 51°21' E 002°47'6 5.7
2014-Apr-20 09:33N 51°26' E 002°41'3 3.4
2014-Apr-20 08:33N 51°26' E 002°35'0 0.0
2014-Apr-20 07:33N 51°25' E 002°35'0 0.1
2014-Apr-20 06:33N 51°26' E 002°35'0 0.2
2014-Apr-20 05:33N 51°26' E 002°36'0 0.0
2014-Apr-20 04:30N 51°26' E 002°36'0 0.0
2014-Apr-20 03:33N 51°26' E 002°36'0 0.2
2014-Apr-20 02:33N 51°25' E 002°36'0 0.1
2014-Apr-20 01:33N 51°25' E 002°36'0 0.0
2014-Apr-20 00:33N 51°25' E 002°36'0 0.0
2014-Apr-19 23:30N 51°25' E 002°36'0 0.0
2014-Apr-19 22:33N 51°25' E 002°36'0 0.0
2014-Apr-19 21:30N 51°25' E 002°36'0 0.0
2014-Apr-19 20:33N 51°25' E 002°36'0 0.0
2014-Apr-19 19:33N 51°25' E 002°36'0 0.0
2014-Apr-19 18:30N 51°25' E 002°36'0 0.1
2014-Apr-19 17:33N 51°26' E 002°36'0 0.1
2014-Apr-19 16:33N 51°26' E 002°36'0 0.0
2014-Apr-19 15:30N 51°26' E 002°36'0 0.1
2014-Apr-19 14:33N 51°26' E 002°36'0 0.2
2014-Apr-19 13:33N 51°25' E 002°36'0 0.0
2014-Apr-19 12:33N 51°25' E 002°36'0 0.0
2014-Apr-19 11:33N 51°25' E 002°36'0 0.0
2014-Apr-19 10:33N 51°25' E 002°35'0 0.0
2014-Apr-19 09:33N 51°25' E 002°35'0 0.0
2014-Apr-19 08:33N 51°25' E 002°35'0 0.0
2014-Apr-19 07:33N 51°25' E 002°36'0 0.0
2014-Apr-19 06:33N 51°25' E 002°36'0 0.2
2014-Apr-19 05:33N 51°26' E 002°36'0 0.1
2014-Apr-19 04:33N 51°26' E 002°36'0 0.0
2014-Apr-19 03:33N 51°26' E 002°36'0 0.1
2014-Apr-19 02:33N 51°26' E 002°36'0 0.2
2014-Apr-19 01:33N 51°25' E 002°36'0 0.0
2014-Apr-19 00:27N 51°25' E 002°36'0 0.0
2014-Apr-18 23:30N 51°25' E 002°36'0 0.0
2014-Apr-18 22:33N 51°25' E 002°36'0 0.0
2014-Apr-18 21:27N 51°25' E 002°36'0 0.0
2014-Apr-18 20:33N 51°25' E 002°36'0 0.0
2014-Apr-18 19:33N 51°25' E 002°36'0 0.0
2014-Apr-18 18:30N 51°25' E 002°36'0 0.0
2014-Apr-18 17:33N 51°25' E 002°36'0 0.2
2014-Apr-18 16:30N 51°26' E 002°36'0 0.0
2014-Apr-18 15:33N 51°26' E 002°36'0 0.1
2014-Apr-18 14:33N 51°26' E 002°36'0 0.1
2014-Apr-18 13:33N 51°25' E 002°36'0 0.1
2014-Apr-18 12:27N 51°25' E 002°36'0 0.1
2014-Apr-18 11:33N 51°25' E 002°36'0 0.0
2014-Apr-18 10:33N 51°25' E 002°36'0 0.0
2014-Apr-18 09:33N 51°25' E 002°36'0 0.0
2014-Apr-18 08:30N 51°25' E 002°36'0 0.0
2014-Apr-18 07:33N 51°25' E 002°36'0 0.0
2014-Apr-18 06:33N 51°25' E 002°36'0 0.0
2014-Apr-18 05:33N 51°25' E 002°36'0 0.2
2014-Apr-18 04:33N 51°26' E 002°36'0 0.1
2014-Apr-18 03:33N 51°26' E 002°36'0 0.0
2014-Apr-18 02:32N 51°26' E 002°36'0 0.1
2014-Apr-18 01:33N 51°26' E 002°36'0 0.1
2014-Apr-18 00:33N 51°25' E 002°36'0 0.1
2014-Apr-17 23:33N 51°25' E 002°36'0 0.1
2014-Apr-17 22:33N 51°25' E 002°36'0 0.0
2014-Apr-17 21:29N 51°25' E 002°36'0 0.1
2014-Apr-17 20:33N 51°25' E 002°36'0 0.0
2014-Apr-17 19:32N 51°26' E 002°36'0 0.2
2014-Apr-17 18:33N 51°26' E 002°36'0 0.0
2014-Apr-17 17:33N 51°26' E 002°36'0 0.0
2014-Apr-17 16:32N 51°26' E 002°36'0 0.0
2014-Apr-17 15:29N 51°26' E 002°36'0 0.0
2014-Apr-17 14:29N 51°26' E 002°36'0 0.0
2014-Apr-17 13:32N 51°26' E 002°36'0 0.0
2014-Apr-17 12:32N 51°26' E 002°36'0 0.1
2014-Apr-17 11:26N 51°25' E 002°36'0 0.1
2014-Apr-17 10:32N 51°25' E 002°36'0 0.0
2014-Apr-17 09:33N 51°25' E 002°36'0 0.0
2014-Apr-17 08:33N 51°25' E 002°36'0 0.1
2014-Apr-17 07:32N 51°26' E 002°36'0 0.1
2014-Apr-17 06:29N 51°26' E 002°36'0 0.0
2014-Apr-17 05:32N 51°26' E 002°36'0 0.0
2014-Apr-17 04:26N 51°26' E 002°36'0 0.0
2014-Apr-17 03:32N 51°26' E 002°36'0 0.0
2014-Apr-17 02:26N 51°26' E 002°36'0 0.0
2014-Apr-17 01:32N 51°26' E 002°36'0 0.0
2014-Apr-17 00:23N 51°26' E 002°36'0 0.2
2014-Apr-16 23:32N 51°25' E 002°36'0 0.1
2014-Apr-16 22:32N 51°25' E 002°36'0 0.0
2014-Apr-16 21:32N 51°25' E 002°36'0 0.0
2014-Apr-16 20:32N 51°25' E 002°36'0 0.0
2014-Apr-16 19:32N 51°25' E 002°36'0 0.0
2014-Apr-16 18:32N 51°26' E 002°36'0 0.0
2014-Apr-16 17:32N 51°26' E 002°36'0 0.1
2014-Apr-16 16:32N 51°26' E 002°36'0 0.0
2014-Apr-16 15:32N 51°26' E 002°36'0 0.0
2014-Apr-16 14:32N 51°26' E 002°36'0 0.0
2014-Apr-16 13:29N 51°26' E 002°36'0 0.0
2014-Apr-16 12:32N 51°26' E 002°36'0 0.1
2014-Apr-16 11:26N 51°25' E 002°36'0 0.1
2014-Apr-16 10:32N 51°25' E 002°36'0 0.0
2014-Apr-16 09:32N 51°25' E 002°36'0 0.0
2014-Apr-16 08:32N 51°25' E 002°36'0 0.0
2014-Apr-16 07:32N 51°25' E 002°36'0 0.0
2014-Apr-16 06:32N 51°26' E 002°36'0 0.0
2014-Apr-16 05:32N 51°26' E 002°36'0 0.1
2014-Apr-16 04:32N 51°26' E 002°36'0 0.1
2014-Apr-16 03:32N 51°26' E 002°36'0 0.0
2014-Apr-16 02:29N 51°26' E 002°36'0 0.0
2014-Apr-16 01:29N 51°26' E 002°36'0 0.0
2014-Apr-16 00:32N 51°26' E 002°36'0 0.2
2014-Apr-15 23:32N 51°25' E 002°36'0 0.0
2014-Apr-15 22:32N 51°25' E 002°36'0 0.2
2014-Apr-15 21:33N 51°26' E 002°35'6 5.9
2014-Apr-15 20:33N 51°30' E 002°42'1515.5
2014-Apr-15 19:33N 51°43' E 002°55'1413.4
2014-Apr-15 18:33N 51°50' E 003°14'2013.1
2014-Apr-15 17:03N 52°08' E 003°27'711.4
2014-Apr-15 16:27N 52°12' E 003°36'3 3.0
2014-Apr-15 15:33N 52°11' E 003°40'0 0.0
2014-Apr-15 14:24N 52°11' E 003°40'0 0.1
2014-Apr-15 11:34N 52°10' E 003°40'0 0.0
2014-Apr-15 03:31N 52°10' E 003°40'0 0.0
2014-Apr-14 23:30N 52°10' E 003°40'0 0.0
2014-Apr-14 22:31N 52°10' E 003°40'0 0.0
2014-Apr-14 10:33N 52°10' E 003°40'0 0.0
2014-Apr-14 09:30N 52°10' E 003°40'0 0.0
2014-Apr-14 08:33N 52°10' E 003°40'0 0.0
2014-Apr-14 07:33N 52°10' E 003°40'0 0.0
2014-Apr-14 06:33N 52°10' E 003°40'0 0.0
2014-Apr-14 05:30N 52°10' E 003°40'0 0.0
2014-Apr-13 21:33N 52°10' E 003°40'0 0.0
2014-Apr-13 19:27N 52°10' E 003°40'0 0.0
2014-Apr-13 18:33N 52°10' E 003°40'54 9.0
2014-Apr-13 12:33N 51°39' E 002°28'1515.2
2014-Apr-13 11:33N 51°28' E 002°12'1313.6
2014-Apr-13 10:33N 51°15' E 002°06'1514.3
2014-Apr-13 09:31N 51°07' E 001°46'1313.9
2014-Apr-13 08:33N 50°58' E 001°30'4212.0
2014-Apr-13 05:04N 50°27' E 000°46'713.2
2014-Apr-13 04:33N 50°25' E 000°35'1512.6
2014-Apr-13 03:23N 50°22' E 000°13'5711.8
2014-Apr-12 22:31N 50°07' W 001°14'  

Dump ship's entire track history

sailing weather and tide predictions

Krisjanis Valdemars — V7LI9 — position and weather